createdAt,value
2018-02-13T00:01:10.306Z,0.90
2018-02-13T00:03:37.853Z,0.90
2018-02-13T00:06:05.290Z,0.90
2018-02-13T00:08:32.779Z,0.90
2018-02-13T00:11:00.255Z,1.00
2018-02-13T00:13:27.743Z,0.90
2018-02-13T00:15:55.215Z,0.90
2018-02-13T00:18:22.711Z,0.90
2018-02-13T00:20:50.947Z,0.90
2018-02-13T00:23:18.447Z,0.90
2018-02-13T00:25:45.953Z,0.90
2018-02-13T00:28:13.439Z,0.90
2018-02-13T00:30:40.919Z,0.90
2018-02-13T00:33:08.410Z,0.90
2018-02-13T00:35:35.887Z,1.00
2018-02-13T00:38:03.382Z,1.00
2018-02-13T00:40:31.614Z,1.00
2018-02-13T00:42:59.105Z,1.00
2018-02-13T00:45:26.607Z,1.10
2018-02-13T00:47:54.085Z,1.10
2018-02-13T00:50:22.323Z,1.10
2018-02-13T00:52:49.827Z,1.10
2018-02-13T00:55:17.302Z,1.20
2018-02-13T00:57:44.791Z,1.20
2018-02-13T01:00:13.033Z,1.10
2018-02-13T01:02:40.535Z,1.00
2018-02-13T01:05:08.775Z,1.00
2018-02-13T01:07:36.275Z,0.90
2018-02-13T01:10:03.747Z,1.00
2018-02-13T01:12:31.237Z,1.00
2018-02-13T01:14:58.710Z,0.90
2018-02-13T01:17:26.203Z,1.00
2018-02-13T01:19:53.679Z,1.00
2018-02-13T01:22:21.163Z,1.00
2018-02-13T01:24:48.631Z,1.00
2018-02-13T01:27:16.122Z,1.00
2018-02-13T01:29:43.604Z,0.90
2018-02-13T01:32:11.099Z,1.00
2018-02-13T01:34:39.343Z,0.90
2018-02-13T01:37:06.838Z,0.90
2018-02-13T01:39:34.302Z,0.90
2018-02-13T01:42:01.798Z,0.80
2018-02-13T01:44:30.059Z,0.90
2018-02-13T01:46:57.535Z,0.80
2018-02-13T01:49:25.039Z,0.90
2018-02-13T01:51:52.511Z,1.00
2018-02-13T01:54:20.003Z,1.00
2018-02-13T01:56:48.334Z,0.90
2018-02-13T01:59:15.824Z,0.90
2018-02-13T02:01:44.062Z,0.90
2018-02-13T02:04:11.563Z,0.90
2018-02-13T02:06:39.038Z,1.00
2018-02-13T02:09:06.554Z,1.00
2018-02-13T02:11:34.027Z,1.00
2018-02-13T02:14:01.522Z,1.00
2018-02-13T02:16:28.990Z,1.00
2018-02-13T02:18:56.491Z,0.90
2018-02-13T02:21:24.730Z,0.90
2018-02-13T02:23:52.230Z,0.80
2018-02-13T02:26:19.702Z,0.80
2018-02-13T02:28:47.195Z,0.80
2018-02-13T02:31:15.430Z,0.80
2018-02-13T02:33:42.928Z,0.80
2018-02-13T02:36:10.404Z,0.90
2018-02-13T02:38:43.059Z,1.00
2018-02-13T02:41:10.539Z,1.00
2018-02-13T02:43:38.040Z,0.80
2018-02-13T02:46:05.516Z,0.80
2018-02-13T02:48:33.771Z,0.90
2018-02-13T02:51:01.248Z,0.90
2018-02-13T02:53:28.752Z,1.00
2018-02-13T02:55:56.988Z,0.90
2018-02-13T02:58:24.487Z,0.80
2018-02-13T03:00:51.959Z,1.00
2018-02-13T03:03:19.454Z,1.10
2018-02-13T03:05:47.699Z,1.00
2018-02-13T03:08:19.862Z,0.90
2018-02-13T03:10:47.344Z,0.90
2018-02-13T03:13:15.191Z,0.90
2018-02-13T03:15:42.720Z,0.90
2018-02-13T03:18:10.214Z,0.90
2018-02-13T03:20:37.690Z,0.90
2018-02-13T03:23:05.185Z,0.80
2018-02-13T03:25:32.660Z,0.80
2018-02-13T03:28:00.155Z,0.80
2018-02-13T03:30:27.634Z,0.80
2018-02-13T03:32:55.131Z,0.80
2018-02-13T03:35:23.366Z,0.70
2018-02-13T03:37:50.859Z,0.70
2018-02-13T03:40:18.336Z,0.70
2018-02-13T03:42:45.831Z,0.60
2018-02-13T03:45:13.312Z,0.50
2018-02-13T03:47:40.814Z,0.50
2018-02-13T03:50:08.295Z,0.40
2018-02-13T03:52:35.794Z,0.40
2018-02-13T03:55:04.042Z,0.50
2018-02-13T03:57:31.526Z,0.50
2018-02-13T03:59:59.023Z,0.50
2018-02-13T04:02:27.285Z,0.30
2018-02-13T04:04:54.778Z,0.30
2018-02-13T04:07:23.019Z,0.50
2018-02-13T04:09:50.519Z,0.40
2018-02-13T04:12:17.992Z,0.50
2018-02-13T04:14:45.483Z,0.40
2018-02-13T04:17:12.959Z,0.40
2018-02-13T04:19:41.227Z,0.40
2018-02-13T04:22:08.695Z,0.40
2018-02-13T04:24:36.202Z,0.40
2018-02-13T04:27:03.682Z,0.50
2018-02-13T04:29:31.184Z,0.50
2018-02-13T04:31:58.658Z,0.40
2018-02-13T04:34:26.167Z,0.40
2018-02-13T04:36:54.406Z,0.40
2018-02-13T04:39:21.901Z,0.30
2018-02-13T04:41:49.378Z,0.30
2018-02-13T04:44:16.870Z,0.30
2018-02-13T04:46:45.109Z,0.30
2018-02-13T04:49:12.602Z,0.30
2018-02-13T04:51:40.086Z,0.40
2018-02-13T04:54:08.350Z,0.50
2018-02-13T04:56:35.839Z,0.40
2018-02-13T04:59:03.354Z,0.40
2018-02-13T05:01:30.843Z,0.40
2018-02-13T05:03:58.336Z,0.40
2018-02-13T05:06:25.812Z,0.40
2018-02-13T05:08:53.303Z,0.40
2018-02-13T05:11:21.545Z,0.40
2018-02-13T05:13:49.039Z,0.40
2018-02-13T05:16:16.520Z,0.40
2018-02-13T05:18:44.774Z,0.40
2018-02-13T05:21:12.247Z,0.30
2018-02-13T05:23:39.739Z,0.40
2018-02-13T05:26:07.223Z,0.40
2018-02-13T05:28:35.483Z,0.30
2018-02-13T05:31:02.964Z,0.20
2018-02-13T05:33:30.535Z,0.30
2018-02-13T05:35:58.018Z,0.30
2018-02-13T05:38:26.274Z,0.30
2018-02-13T05:40:53.751Z,0.20
2018-02-13T05:43:21.250Z,0.20
2018-02-13T05:45:49.492Z,0.20
2018-02-13T05:48:16.991Z,0.20
2018-02-13T05:50:44.474Z,0.20
2018-02-13T05:53:12.738Z,0.20
2018-02-13T05:55:40.223Z,0.20
2018-02-13T05:58:07.740Z,0.20
2018-02-13T06:00:35.231Z,0.30
2018-02-13T06:03:02.735Z,0.20
2018-02-13T06:05:30.212Z,0.20
2018-02-13T06:07:58.456Z,0.10
2018-02-13T06:10:25.955Z,0.10
2018-02-13T06:12:53.435Z,0.10
2018-02-13T06:15:21.694Z,0.10
2018-02-13T06:17:49.183Z,0.10
2018-02-13T06:20:16.681Z,0.10
2018-02-13T06:22:44.158Z,0.10
2018-02-13T06:25:11.650Z,0.10
2018-02-13T06:27:39.131Z,0.10
2018-02-13T06:30:06.628Z,0.10
2018-02-13T06:32:34.116Z,0.00
2018-02-13T06:35:02.389Z,-0.10
2018-02-13T06:37:29.874Z,-0.20
2018-02-13T06:39:58.151Z,-0.10
2018-02-13T06:42:25.641Z,-0.20
2018-02-13T06:44:53.904Z,0.10
2018-02-13T06:47:21.383Z,0.10
2018-02-13T06:49:48.884Z,0.20
2018-02-13T06:52:16.370Z,0.20
2018-02-13T06:54:43.877Z,0.00
2018-02-13T06:57:11.362Z,-0.10
2018-02-13T06:59:38.867Z,-0.10
2018-02-13T07:02:06.354Z,-0.10
2018-02-13T07:04:33.857Z,0.00
2018-02-13T07:07:01.346Z,0.10
2018-02-13T07:09:28.859Z,0.00
2018-02-13T07:11:56.334Z,0.10
2018-02-13T07:14:23.843Z,0.00
2018-02-13T07:16:51.327Z,0.10
2018-02-13T07:19:18.824Z,0.10
2018-02-13T07:21:46.307Z,0.20
2018-02-13T07:24:13.806Z,0.40
2018-02-13T07:26:41.309Z,0.60
2018-02-13T07:29:09.582Z,0.70
2018-02-13T07:31:37.067Z,0.70
2018-02-13T07:34:05.339Z,0.80
2018-02-13T07:36:32.819Z,0.70
2018-02-13T07:39:00.316Z,0.80
2018-02-13T07:41:27.802Z,0.70
2018-02-13T07:43:55.302Z,0.80
2018-02-13T07:46:22.783Z,0.80
2018-02-13T07:48:50.286Z,0.80
2018-02-13T07:51:18.526Z,0.80
2018-02-13T07:53:46.028Z,0.70
2018-02-13T07:56:13.556Z,0.80
2018-02-13T07:58:41.068Z,0.90
2018-02-13T08:01:08.548Z,0.90
2018-02-13T08:03:36.819Z,0.90
2018-02-13T08:06:04.303Z,0.90
2018-02-13T08:08:32.576Z,1.10
2018-02-13T08:11:00.075Z,1.00
2018-02-13T08:13:28.326Z,1.00
2018-02-13T08:15:55.825Z,1.00
2018-02-13T08:18:24.071Z,1.20
2018-02-13T08:20:51.569Z,1.20
2018-02-13T08:23:19.055Z,1.20
2018-02-13T08:25:47.323Z,1.30
2018-02-13T08:28:14.802Z,1.20
2018-02-13T08:30:43.082Z,1.50
2018-02-13T08:33:10.554Z,1.40
2018-02-13T08:35:38.052Z,1.50
2018-02-13T08:38:06.295Z,1.50
2018-02-13T08:40:33.794Z,1.50
2018-02-13T08:43:01.267Z,1.60
2018-02-13T08:45:29.535Z,1.70
2018-02-13T08:47:57.015Z,1.60
2018-02-13T08:50:24.514Z,1.70
2018-02-13T08:52:51.995Z,1.70
2018-02-13T08:55:19.492Z,1.80
2018-02-13T08:57:47.029Z,1.90
2018-02-13T09:00:14.483Z,2.00
2018-02-13T09:02:42.731Z,2.50
2018-02-13T09:05:10.231Z,2.50
2018-02-13T09:07:37.706Z,2.60
2018-02-13T09:10:05.992Z,2.80
2018-02-13T09:12:34.252Z,2.90
2018-02-13T09:15:01.754Z,2.80
2018-02-13T09:17:30.003Z,3.30
2018-02-13T09:19:57.499Z,3.30
2018-02-13T09:22:24.975Z,3.60
2018-02-13T09:24:53.238Z,4.20
2018-02-13T09:27:20.721Z,4.10
2018-02-13T09:29:48.218Z,4.40
2018-02-13T09:32:16.467Z,4.90
2018-02-13T09:34:43.970Z,4.90
2018-02-13T09:37:12.210Z,5.40
2018-02-13T09:39:39.711Z,5.30
2018-02-13T09:42:07.186Z,5.50
2018-02-13T09:44:34.683Z,5.60
2018-02-13T09:47:02.171Z,5.80
2018-02-13T09:49:29.662Z,6.00
2018-02-13T09:51:57.134Z,5.80
2018-02-13T09:54:24.637Z,5.60
2018-02-13T09:56:52.883Z,5.10
2018-02-13T09:59:20.391Z,5.00
2018-02-13T10:01:47.875Z,4.70
2018-02-13T10:04:16.143Z,4.40
2018-02-13T10:06:43.618Z,4.30
2018-02-13T10:09:11.117Z,4.50
2018-02-13T10:11:38.596Z,4.70
2018-02-13T10:14:06.095Z,5.10
2018-02-13T10:16:33.572Z,5.30
2018-02-13T10:19:01.073Z,5.70
2018-02-13T10:21:29.320Z,6.20
2018-02-13T10:23:56.794Z,6.10
2018-02-13T10:26:24.294Z,6.30
2018-02-13T10:28:51.774Z,6.60
2018-02-13T10:31:20.067Z,6.70
2018-02-13T10:33:48.303Z,6.80
2018-02-13T10:36:15.800Z,6.80
2018-02-13T10:38:44.051Z,7.10
2018-02-13T10:41:11.551Z,7.00
2018-02-13T10:43:39.025Z,7.20
2018-02-13T10:46:06.524Z,7.40
2018-02-13T10:48:34.773Z,7.30
2018-02-13T10:51:02.271Z,7.30
2018-02-13T10:53:31.347Z,7.70
2018-02-13T10:55:58.854Z,7.70
2018-02-13T10:58:27.099Z,7.90
2018-02-13T11:01:00.211Z,7.90
2018-02-13T11:03:27.691Z,7.90
2018-02-13T11:05:55.182Z,7.90
2018-02-13T11:08:23.429Z,7.50
2018-02-13T11:10:50.927Z,7.50
2018-02-13T11:13:18.398Z,7.30
2018-02-13T11:15:45.894Z,7.50
2018-02-13T11:18:14.131Z,7.20
2018-02-13T11:20:41.631Z,7.10
2018-02-13T11:23:09.108Z,6.90
2018-02-13T11:25:37.362Z,6.20
2018-02-13T11:28:04.835Z,6.10
2018-02-13T11:30:32.334Z,6.00
2018-02-13T11:33:00.582Z,6.10
2018-02-13T11:35:28.075Z,6.10
2018-02-13T11:37:55.543Z,6.30
2018-02-13T11:40:23.039Z,6.20
2018-02-13T11:42:51.282Z,6.30
2018-02-13T11:45:18.767Z,6.20
2018-02-13T11:47:46.239Z,6.00
2018-02-13T11:50:13.743Z,5.90
2018-02-13T11:52:41.991Z,5.60
2018-02-13T11:55:09.486Z,5.60
2018-02-13T11:57:37.740Z,5.30
2018-02-13T12:00:05.239Z,5.30
2018-02-13T12:02:32.706Z,5.30
2018-02-13T12:05:00.198Z,5.20
2018-02-13T12:07:28.447Z,5.40
2018-02-13T12:09:55.939Z,5.40
2018-02-13T12:12:23.414Z,5.70
2018-02-13T12:14:51.680Z,6.10
2018-02-13T12:17:19.150Z,6.00
2018-02-13T12:19:46.647Z,6.10
2018-02-13T12:22:14.901Z,5.70
2018-02-13T12:24:42.399Z,5.60
2018-02-13T12:27:10.634Z,5.70
2018-02-13T12:29:38.133Z,5.70
2018-02-13T12:32:05.610Z,5.80
2018-02-13T12:34:33.103Z,6.10
2018-02-13T12:37:01.342Z,6.20
2018-02-13T12:39:28.821Z,6.20
2018-02-13T12:41:56.315Z,5.70
2018-02-13T12:44:23.791Z,5.50
2018-02-13T12:46:51.282Z,5.40
2018-02-13T12:49:18.754Z,5.50
2018-02-13T12:51:46.254Z,5.60
2018-02-13T12:54:13.736Z,5.80
2018-02-13T12:56:41.231Z,6.00
2018-02-13T12:59:08.715Z,6.30
2018-02-13T13:01:36.980Z,6.30
2018-02-13T13:04:20.135Z,6.20
2018-02-13T13:06:47.642Z,6.00
2018-02-13T13:09:15.118Z,6.30
2018-02-13T13:11:42.623Z,6.60
2018-02-13T13:14:10.102Z,6.30
2018-02-13T13:16:37.602Z,6.10
2018-02-13T13:19:05.853Z,6.40
2018-02-13T13:21:33.354Z,6.30
2018-02-13T13:24:01.596Z,6.10
2018-02-13T13:26:29.094Z,6.10
2018-02-13T13:28:56.571Z,5.90
2018-02-13T13:31:24.054Z,6.00
2018-02-13T13:33:52.296Z,6.10
2018-02-13T13:36:19.786Z,6.00
2018-02-13T13:38:47.258Z,6.20
2018-02-13T13:41:14.747Z,6.40
2018-02-13T13:43:42.258Z,6.50
2018-02-13T13:46:09.751Z,6.40
2018-02-13T13:48:37.226Z,6.30
2018-02-13T13:51:04.718Z,6.10
2018-02-13T13:53:32.203Z,6.10
2018-02-13T13:56:00.461Z,6.10
2018-02-13T13:58:27.939Z,6.10
2018-02-13T14:00:55.426Z,6.00
2018-02-13T14:03:23.669Z,5.90
2018-02-13T14:05:51.169Z,5.90
2018-02-13T14:08:18.654Z,6.20
2018-02-13T14:10:46.914Z,6.30
2018-02-13T14:13:14.399Z,6.30
2018-02-13T14:15:41.895Z,6.30
2018-02-13T14:18:09.370Z,6.40
2018-02-13T14:20:36.875Z,6.50
2018-02-13T14:23:04.347Z,6.40
2018-02-13T14:25:31.838Z,6.20
2018-02-13T14:27:59.306Z,5.80
2018-02-13T14:30:26.802Z,5.70
2018-02-13T14:32:55.050Z,5.60
2018-02-13T14:35:22.543Z,5.60
2018-02-13T14:37:50.019Z,5.70
2018-02-13T14:40:17.514Z,5.80
2018-02-13T14:42:44.988Z,5.70
2018-02-13T14:45:12.493Z,5.70
2018-02-13T14:47:39.967Z,5.40
2018-02-13T14:50:07.456Z,5.30
2018-02-13T14:52:34.929Z,5.30
2018-02-13T14:55:02.422Z,5.40
2018-02-13T14:57:29.927Z,5.60
2018-02-13T14:59:58.162Z,5.30
2018-02-13T15:02:25.659Z,5.30
2018-02-13T15:04:53.910Z,5.20
2018-02-13T15:07:21.408Z,5.10
2018-02-13T15:09:49.658Z,5.20
2018-02-13T15:12:17.151Z,5.10
2018-02-13T15:14:45.549Z,5.20
2018-02-13T15:20:21.016Z,5.30
2018-02-13T15:22:48.490Z,5.30
2018-02-13T15:25:15.983Z,5.20
2018-02-13T15:27:44.230Z,5.30
2018-02-13T15:30:11.742Z,5.30
2018-02-13T15:32:39.991Z,5.30
2018-02-13T15:35:07.466Z,5.30
2018-02-13T15:37:34.958Z,5.20
2018-02-13T15:40:02.426Z,5.20
2018-02-13T15:42:29.914Z,5.20
2018-02-13T15:44:58.163Z,5.10
2018-02-13T15:47:25.658Z,5.00
2018-02-13T15:49:53.135Z,5.00
2018-02-13T15:52:20.623Z,5.00
2018-02-13T15:54:48.105Z,5.00
2018-02-13T15:57:15.599Z,5.00
2018-02-13T15:59:43.066Z,4.90
2018-02-13T16:02:10.564Z,4.90
2018-02-13T16:04:38.044Z,4.80
2018-02-13T16:07:05.538Z,4.80
2018-02-13T16:09:33.773Z,4.70
2018-02-13T16:12:01.275Z,4.70
2018-02-13T16:14:28.754Z,4.70
2018-02-13T16:16:56.242Z,4.60
2018-02-13T16:19:23.722Z,4.60
2018-02-13T16:21:51.219Z,4.60
2018-02-13T16:24:18.714Z,4.60
2018-02-13T16:26:46.213Z,4.50
2018-02-13T16:29:14.456Z,4.40
2018-02-13T16:31:42.324Z,4.40
2018-02-13T16:34:09.804Z,4.30
2018-02-13T16:36:37.304Z,4.30
2018-02-13T16:39:04.793Z,4.30
2018-02-13T16:41:33.058Z,4.10
2018-02-13T16:44:00.533Z,4.10
2018-02-13T16:46:28.023Z,4.10
2018-02-13T16:48:56.263Z,4.00
2018-02-13T16:51:23.775Z,3.90
2018-02-13T16:53:52.015Z,4.10
2018-02-13T16:56:19.517Z,4.10
2018-02-13T16:58:46.993Z,4.10
2018-02-13T17:01:15.262Z,4.10
2018-02-13T17:03:42.755Z,4.10
2018-02-13T17:06:11.051Z,4.00
2018-02-13T17:08:39.287Z,3.90
2018-02-13T17:11:06.776Z,3.90
2018-02-13T17:13:34.252Z,3.90
2018-02-13T17:16:01.749Z,3.90
2018-02-13T17:18:29.990Z,3.80
2018-02-13T17:20:57.478Z,3.70
2018-02-13T17:23:24.957Z,3.70
2018-02-13T17:25:52.459Z,3.50
2018-02-13T17:28:19.935Z,3.30
2018-02-13T17:30:47.432Z,3.20
2018-02-13T17:33:14.919Z,3.10
2018-02-13T17:35:42.391Z,3.00
2018-02-13T17:38:09.882Z,3.10
2018-02-13T17:40:38.119Z,3.10
2018-02-13T17:43:05.611Z,3.00
2018-02-13T17:45:33.094Z,3.00
2018-02-13T17:48:00.582Z,3.10
2018-02-13T17:50:28.846Z,3.10
2018-02-13T17:52:56.345Z,3.10
2018-02-13T17:55:23.807Z,3.10
2018-02-13T17:57:51.296Z,3.10
2018-02-13T18:00:18.772Z,3.00
2018-02-13T18:02:46.270Z,3.00
2018-02-13T18:05:13.743Z,2.90
2018-02-13T18:07:41.245Z,3.00
2018-02-13T18:10:09.499Z,3.10
2018-02-13T18:12:36.986Z,3.00
2018-02-13T18:15:04.463Z,3.10
2018-02-13T18:17:31.965Z,3.20
2018-02-13T18:19:59.463Z,3.20
2018-02-13T18:22:26.986Z,3.30
2018-02-13T18:24:54.474Z,3.30
2018-02-13T18:27:22.754Z,3.20
2018-02-13T18:29:50.990Z,3.20
2018-02-13T18:32:18.491Z,3.10
2018-02-13T18:34:45.979Z,3.00
2018-02-13T18:37:13.482Z,2.90
2018-02-13T18:39:40.963Z,2.90
2018-02-13T18:42:08.450Z,2.90
2018-02-13T18:44:35.926Z,2.90
2018-02-13T18:47:03.418Z,3.00
2018-02-13T18:49:30.896Z,2.90
2018-02-13T18:51:58.395Z,2.80
2018-02-13T18:54:25.879Z,2.80
2018-02-13T18:56:53.368Z,2.90
2018-02-13T18:59:20.854Z,2.70
2018-02-13T19:01:48.347Z,2.60
2018-02-13T19:04:15.831Z,2.70
2018-02-13T19:06:43.330Z,2.60
2018-02-13T19:09:10.799Z,2.60
2018-02-13T19:11:38.286Z,2.60
2018-02-13T19:14:05.762Z,2.40
2018-02-13T19:16:33.255Z,2.30
2018-02-13T19:19:00.727Z,2.40
2018-02-13T19:21:28.223Z,2.40
2018-02-13T19:23:55.694Z,2.30
2018-02-13T19:26:23.960Z,2.30
2018-02-13T19:28:51.443Z,2.30
2018-02-13T19:31:19.742Z,2.30
2018-02-13T19:33:47.987Z,2.20
2018-02-13T19:36:15.494Z,2.20
2018-02-13T19:38:42.988Z,2.20
2018-02-13T19:41:10.458Z,2.30
2018-02-13T19:43:37.963Z,2.30
2018-02-13T19:46:05.436Z,2.30
2018-02-13T19:48:32.934Z,2.30
2018-02-13T19:51:01.204Z,2.20
2018-02-13T19:53:28.695Z,2.20
2018-02-13T19:55:56.939Z,2.20
2018-02-13T19:58:24.435Z,2.10
2018-02-13T20:00:52.707Z,2.30
2018-02-13T20:03:20.210Z,2.20
2018-02-13T20:05:47.691Z,2.20
2018-02-13T20:08:15.986Z,2.10
2018-02-13T20:10:44.292Z,2.10
2018-02-13T20:13:11.802Z,2.00
2018-02-13T20:15:39.288Z,2.00
2018-02-13T20:18:06.788Z,2.00
2018-02-13T20:20:34.263Z,2.10
2018-02-13T20:23:01.774Z,2.00
2018-02-13T20:25:29.247Z,1.90
2018-02-13T20:27:56.947Z,1.90
2018-02-13T20:30:24.422Z,1.90
2018-02-13T20:32:51.918Z,1.90
2018-02-13T20:35:19.442Z,1.80
2018-02-13T20:37:46.935Z,1.70
2018-02-13T20:40:15.199Z,1.60
2018-02-13T20:42:42.703Z,1.60
2018-02-13T20:45:10.196Z,1.70
2018-02-13T20:47:37.698Z,1.60
2018-02-13T20:50:05.172Z,1.70
2018-02-13T20:52:32.697Z,1.60
2018-02-13T20:55:00.935Z,1.60
2018-02-13T20:57:28.442Z,1.60
2018-02-13T20:59:56.687Z,1.60
2018-02-13T21:02:24.185Z,1.50
2018-02-13T21:04:51.664Z,1.60
2018-02-13T21:07:19.923Z,1.50
2018-02-13T21:09:47.396Z,1.40
2018-02-13T21:12:14.904Z,1.40
2018-02-13T21:14:43.159Z,1.30
2018-02-13T21:17:10.656Z,1.30
2018-02-13T21:19:38.900Z,1.30
2018-02-13T21:22:06.405Z,1.30
2018-02-13T21:24:34.648Z,1.40
2018-02-13T21:27:02.151Z,1.40
2018-02-13T21:29:29.626Z,1.40
2018-02-13T21:31:57.143Z,1.40
2018-02-13T21:34:24.623Z,1.40
2018-02-13T21:36:52.105Z,1.40
2018-02-13T21:39:19.604Z,1.20
2018-02-13T21:41:47.084Z,1.20
2018-02-13T21:44:15.362Z,1.20
2018-02-13T21:46:42.842Z,1.10
2018-02-13T21:49:11.110Z,1.20
2018-02-13T21:51:38.582Z,1.20
2018-02-13T21:54:06.087Z,1.30
2018-02-13T21:56:34.335Z,1.50
2018-02-13T21:59:01.840Z,1.40
2018-02-13T22:01:30.087Z,1.60
2018-02-13T22:03:57.583Z,1.50
2018-02-13T22:06:25.064Z,1.60
2018-02-13T22:08:53.319Z,1.50
2018-02-13T22:11:20.801Z,1.40
2018-02-13T22:13:48.298Z,1.50
2018-02-13T22:16:16.534Z,1.60
2018-02-13T22:18:44.044Z,1.50
2018-02-13T22:21:12.286Z,1.50
2018-02-13T22:23:39.784Z,1.50
2018-02-13T22:26:07.263Z,1.60
2018-02-13T22:28:34.735Z,1.60
2018-02-13T22:31:02.233Z,1.60
2018-02-13T22:33:29.766Z,1.60
2018-02-13T22:35:57.270Z,1.70
2018-02-13T22:38:24.750Z,1.80
2018-02-13T22:40:52.252Z,1.90
2018-02-13T22:43:19.732Z,2.00
2018-02-13T22:45:47.232Z,1.90
2018-02-13T22:48:15.475Z,1.80
2018-02-13T22:50:42.978Z,1.80
2018-02-13T22:53:10.450Z,1.70
2018-02-13T22:55:37.950Z,1.70
2018-02-13T22:58:05.416Z,1.80
2018-02-13T23:00:32.914Z,1.70
2018-02-13T23:03:00.393Z,1.70
2018-02-13T23:05:27.887Z,1.60
2018-02-13T23:07:55.369Z,1.50
2018-02-13T23:10:22.864Z,1.40
2018-02-13T23:12:51.106Z,1.50
2018-02-13T23:15:18.619Z,1.40
2018-02-13T23:17:46.872Z,1.40
2018-02-13T23:20:14.347Z,1.30
2018-02-13T23:22:41.841Z,1.30
2018-02-13T23:25:10.082Z,1.10
2018-02-13T23:27:37.588Z,1.10
2018-02-13T23:30:05.060Z,1.10
2018-02-13T23:32:33.323Z,1.00
2018-02-13T23:35:01.611Z,1.00
2018-02-13T23:37:29.103Z,0.90
2018-02-13T23:39:56.583Z,1.00
2018-02-13T23:42:24.860Z,1.20
2018-02-13T23:44:52.343Z,1.10
2018-02-13T23:47:20.602Z,1.30
2018-02-13T23:49:48.072Z,1.20
2018-02-13T23:52:15.574Z,1.30
2018-02-13T23:54:43.816Z,1.30
2018-02-13T23:57:11.319Z,1.20
2018-02-13T23:59:38.798Z,1.20
